Terminal Aerodrome Forecast
Issued by NWS Caribou, ME

Home | Current Version | Previous Version | Text Only | Print | Product List | Glossary On
Versions: 1 2 3 4 5 6 7 8 9 10 11 12 13 14 15 16 17 18 19 20
348
FTUS41 KCAR 102332
TAFBGR
TAF
KBGR 102332Z 1100/1124 VRB03KT P6SM OVC070
      TEMPO 1102/1106 5SM -SHSN OVC025
     FM110700 32003KT P6SM OVC025
     FM111400 34007KT P6SM BKN025
     FM112000 32010KT 5SM -SHSN BKN030=

USA.gov is the U.S. government's official web portal to all federal, state and local government web resources and services.